createdAt,value
2023-05-29T00:00:34.068Z,46.71
2023-05-29T00:01:37.023Z,47.09
2023-05-29T00:02:38.690Z,47.05
2023-05-29T00:03:40.395Z,46.85
2023-05-29T00:04:42.119Z,47.10
2023-05-29T00:05:44.197Z,47.06
2023-05-29T00:06:45.838Z,47.61
2023-05-29T00:07:47.398Z,47.63
2023-05-29T00:08:48.964Z,47.23
2023-05-29T00:09:50.673Z,46.78
2023-05-29T00:10:52.240Z,46.71
2023-05-29T00:11:54.142Z,46.30
2023-05-29T00:12:57.207Z,46.55
2023-05-29T00:13:58.958Z,46.58
2023-05-29T00:15:01.237Z,46.38
2023-05-29T00:16:04.584Z,46.46
2023-05-29T00:17:07.182Z,46.05
2023-05-29T00:18:08.955Z,46.36
2023-05-29T00:19:10.554Z,46.62
2023-05-29T00:20:13.118Z,46.56
2023-05-29T00:21:15.072Z,45.87
2023-05-29T00:22:16.741Z,45.89
2023-05-29T00:23:18.298Z,46.44
2023-05-29T00:24:21.227Z,47.04
2023-05-29T00:25:22.674Z,46.31
2023-05-29T00:26:24.215Z,46.46
2023-05-29T00:27:25.800Z,47.10
2023-05-29T00:28:27.553Z,47.36
2023-05-29T00:29:30.122Z,47.20
2023-05-29T00:30:31.746Z,47.40
2023-05-29T00:31:33.377Z,47.19
2023-05-29T00:32:35.002Z,47.51
2023-05-29T00:33:36.575Z,47.11
2023-05-29T00:34:38.463Z,47.59
2023-05-29T00:35:40.006Z,47.34
2023-05-29T00:36:41.583Z,47.57
2023-05-29T00:37:43.116Z,47.38
2023-05-29T00:38:44.666Z,47.95
2023-05-29T00:39:46.320Z,47.54
2023-05-29T00:40:47.923Z,47.68
2023-05-29T00:41:52.115Z,47.64
2023-05-29T00:42:53.738Z,48.44
2023-05-29T00:43:55.362Z,48.09
2023-05-29T00:44:57.223Z,47.97
2023-05-29T00:45:58.868Z,47.46
2023-05-29T00:47:00.448Z,48.27
2023-05-29T00:48:02.168Z,48.27
2023-05-29T00:49:03.781Z,48.48
2023-05-29T00:50:06.199Z,47.67
2023-05-29T00:51:07.883Z,47.76
2023-05-29T00:52:09.619Z,47.64
2023-05-29T00:53:14.084Z,47.83
2023-05-29T00:54:17.915Z,47.77
2023-05-29T00:55:19.714Z,48.08
2023-05-29T00:56:21.909Z,48.31
2023-05-29T00:57:23.789Z,48.24
2023-05-29T00:58:25.501Z,48.40
2023-05-29T00:59:31.550Z,48.50
2023-05-29T01:00:34.326Z,48.39
2023-05-29T01:01:36.853Z,48.58
2023-05-29T01:02:38.724Z,48.61
2023-05-29T01:03:41.289Z,48.43
2023-05-29T01:04:51.695Z,48.90
2023-05-29T01:05:53.309Z,48.19
2023-05-29T01:06:54.924Z,48.02
2023-05-29T01:07:56.462Z,48.70
2023-05-29T01:08:58.008Z,48.63
2023-05-29T01:09:59.921Z,49.22
2023-05-29T01:11:19.142Z,48.42
2023-05-29T01:12:25.162Z,48.54
2023-05-29T01:13:29.151Z,48.98
2023-05-29T01:14:33.491Z,49.05
2023-05-29T01:15:50.229Z,48.73
2023-05-29T01:17:04.449Z,49.11
2023-05-29T01:18:21.597Z,48.95
2023-05-29T01:19:55.303Z,48.61
2023-05-29T01:21:04.621Z,49.07
2023-05-29T01:22:17.469Z,49.37
2023-05-29T01:23:51.836Z,49.25
2023-05-29T01:25:00.072Z,48.58
2023-05-29T01:26:02.197Z,49.30
2023-05-29T01:27:07.371Z,49.32
2023-05-29T01:28:08.989Z,49.61
2023-05-29T01:29:11.974Z,49.68
2023-05-29T01:30:13.877Z,49.66
2023-05-29T01:31:17.473Z,49.73
2023-05-29T01:32:19.072Z,49.65
2023-05-29T01:33:20.755Z,48.88
2023-05-29T01:34:22.383Z,48.94
2023-05-29T01:35:23.975Z,49.21
2023-05-29T01:36:25.666Z,49.43
2023-05-29T01:37:28.450Z,49.64
2023-05-29T01:38:30.068Z,49.62
2023-05-29T01:39:33.074Z,49.56
2023-05-29T01:40:35.043Z,49.89
2023-05-29T01:41:36.675Z,49.42
2023-05-29T01:42:38.207Z,49.60
2023-05-29T01:43:39.745Z,49.54
2023-05-29T01:44:41.334Z,49.68
2023-05-29T01:45:42.941Z,49.70
2023-05-29T01:46:44.809Z,49.98
2023-05-29T01:47:46.939Z,49.72
2023-05-29T01:48:48.580Z,50.13
2023-05-29T01:49:50.112Z,50.32
2023-05-29T01:50:51.765Z,50.59
2023-05-29T01:51:53.429Z,50.49
2023-05-29T01:52:55.053Z,50.36
2023-05-29T01:53:56.606Z,50.37
2023-05-29T01:54:58.136Z,50.33
2023-05-29T01:55:59.701Z,50.75
2023-05-29T01:57:03.300Z,50.23
2023-05-29T01:58:04.863Z,50.59
2023-05-29T01:59:06.992Z,50.41
2023-05-29T02:00:10.269Z,50.62
2023-05-29T02:01:12.580Z,50.46
2023-05-29T02:02:14.320Z,50.99
2023-05-29T02:03:15.965Z,50.80
2023-05-29T02:04:17.645Z,50.47
2023-05-29T02:05:19.379Z,50.42
2023-05-29T02:06:21.577Z,50.82
2023-05-29T02:07:23.282Z,50.78
2023-05-29T02:08:24.880Z,50.61
2023-05-29T02:09:26.907Z,50.45
2023-05-29T02:10:28.519Z,50.61
2023-05-29T02:11:30.473Z,50.77
2023-05-29T02:12:32.232Z,50.76
2023-05-29T02:13:33.796Z,50.94
2023-05-29T02:14:35.390Z,50.83
2023-05-29T02:15:36.974Z,50.93
2023-05-29T02:16:42.075Z,50.84
2023-05-29T02:17:43.785Z,51.10
2023-05-29T02:18:45.491Z,51.11
2023-05-29T02:19:47.361Z,51.49
2023-05-29T02:20:49.192Z,51.89
2023-05-29T02:21:50.913Z,51.78
2023-05-29T02:22:52.495Z,51.28
2023-05-29T02:23:54.164Z,51.51
2023-05-29T02:24:55.961Z,51.71
2023-05-29T02:25:57.677Z,51.45
2023-05-29T02:26:59.305Z,51.35
2023-05-29T02:28:00.896Z,51.63
2023-05-29T02:29:02.466Z,51.05
2023-05-29T02:30:04.360Z,50.93
2023-05-29T02:31:06.392Z,50.94
2023-05-29T02:32:08.183Z,50.76
2023-05-29T02:33:10.007Z,51.18
2023-05-29T02:34:11.641Z,51.37
2023-05-29T02:35:16.104Z,51.04
2023-05-29T02:36:18.413Z,51.11
2023-05-29T02:37:20.048Z,51.09
2023-05-29T02:38:22.125Z,51.04
2023-05-29T02:39:23.745Z,51.37
2023-05-29T02:40:25.532Z,51.11
2023-05-29T02:41:27.713Z,51.49
2023-05-29T02:42:29.282Z,51.49
2023-05-29T02:43:30.904Z,51.28
2023-05-29T02:44:32.471Z,51.46
2023-05-29T02:45:34.031Z,51.30
2023-05-29T02:46:35.966Z,51.10
2023-05-29T02:47:37.744Z,51.39
2023-05-29T02:48:39.309Z,51.03
2023-05-29T02:49:40.895Z,51.21
2023-05-29T02:50:42.482Z,50.89
2023-05-29T02:51:44.128Z,51.01
2023-05-29T02:52:45.689Z,50.34
2023-05-29T02:53:47.272Z,50.72
2023-05-29T02:54:48.874Z,50.96
2023-05-29T02:55:52.354Z,50.54
2023-05-29T02:56:54.337Z,50.61
2023-05-29T02:57:57.024Z,50.58
2023-05-29T02:58:58.631Z,50.60
2023-05-29T03:00:00.420Z,50.94
2023-05-29T03:01:03.717Z,50.62
2023-05-29T03:02:05.754Z,50.48
2023-05-29T03:03:07.551Z,50.63
2023-05-29T03:04:10.898Z,50.41
2023-05-29T03:05:12.687Z,50.74
2023-05-29T03:06:14.273Z,51.05
2023-05-29T03:07:16.181Z,50.79
2023-05-29T03:08:18.966Z,50.78
2023-05-29T03:09:23.344Z,50.85
2023-05-29T03:10:27.777Z,50.60
2023-05-29T03:11:30.012Z,50.38
2023-05-29T03:12:31.896Z,50.93
2023-05-29T03:13:35.631Z,50.74
2023-05-29T03:14:38.024Z,50.52
2023-05-29T03:15:39.592Z,50.45
2023-05-29T03:16:41.745Z,50.81
2023-05-29T03:17:43.638Z,50.53
2023-05-29T03:18:45.235Z,50.58
2023-05-29T03:19:46.841Z,50.75
2023-05-29T03:20:49.237Z,51.26
2023-05-29T03:21:51.381Z,51.20
2023-05-29T03:22:53.147Z,50.87
2023-05-29T03:23:54.875Z,50.91
2023-05-29T03:24:56.450Z,51.04
2023-05-29T03:25:58.069Z,50.99
2023-05-29T03:26:59.639Z,50.97
2023-05-29T03:28:01.306Z,51.41
2023-05-29T03:29:02.924Z,51.93
2023-05-29T03:30:04.776Z,51.69
2023-05-29T03:31:06.402Z,51.48
2023-05-29T03:32:07.984Z,51.71
2023-05-29T03:33:09.616Z,51.49
2023-05-29T03:34:11.259Z,51.53
2023-05-29T03:35:12.849Z,51.83
2023-05-29T03:36:14.434Z,51.62
2023-05-29T03:37:16.134Z,51.88
2023-05-29T03:38:17.726Z,51.66
2023-05-29T03:39:19.364Z,51.20
2023-05-29T03:40:21.161Z,52.00
2023-05-29T03:41:22.775Z,52.00
2023-05-29T03:42:24.364Z,52.21
2023-05-29T03:43:25.947Z,52.22
2023-05-29T03:44:27.516Z,52.87
2023-05-29T03:45:29.104Z,52.46
2023-05-29T03:46:30.991Z,52.68
2023-05-29T03:47:32.955Z,52.06
2023-05-29T03:48:34.611Z,52.91
2023-05-29T03:49:36.182Z,53.02
2023-05-29T03:50:37.772Z,51.88
2023-05-29T03:51:39.346Z,52.30
2023-05-29T03:52:40.941Z,52.23
2023-05-29T03:53:42.540Z,52.21
2023-05-29T03:54:45.898Z,52.73
2023-05-29T03:55:47.438Z,52.53
2023-05-29T03:56:49.030Z,52.46
2023-05-29T03:57:50.780Z,52.17
2023-05-29T03:58:52.348Z,52.31
2023-05-29T03:59:53.920Z,52.59
2023-05-29T04:00:55.570Z,52.32
2023-05-29T04:01:57.213Z,52.48
2023-05-29T04:02:58.944Z,52.70
2023-05-29T04:04:00.959Z,52.84
2023-05-29T04:05:02.684Z,52.08
2023-05-29T04:06:04.440Z,52.21
2023-05-29T04:07:06.243Z,52.22
2023-05-29T04:09:16.110Z,52.79
2023-05-29T04:10:17.751Z,53.04
2023-05-29T04:11:21.905Z,52.95
2023-05-29T04:12:23.939Z,52.43
2023-05-29T04:13:25.522Z,52.15
2023-05-29T04:14:27.092Z,52.88
2023-05-29T04:15:29.137Z,52.69
2023-05-29T04:16:30.942Z,52.96
2023-05-29T04:17:32.710Z,52.49
2023-05-29T04:18:34.363Z,51.88
2023-05-29T04:19:36.037Z,52.44
2023-05-29T04:20:37.710Z,52.61
2023-05-29T04:21:39.339Z,52.35
2023-05-29T04:22:41.223Z,52.82
2023-05-29T04:23:42.789Z,52.45
2023-05-29T04:24:44.477Z,52.73
2023-05-29T04:25:46.103Z,52.42
2023-05-29T04:26:47.810Z,52.75
2023-05-29T04:27:52.105Z,53.06
2023-05-29T04:28:58.104Z,52.71
2023-05-29T04:29:59.877Z,52.72
2023-05-29T04:31:01.703Z,52.79
2023-05-29T04:32:04.397Z,52.72
2023-05-29T04:33:06.313Z,52.95
2023-05-29T04:34:08.581Z,52.58
2023-05-29T04:35:10.449Z,52.43
2023-05-29T04:36:12.076Z,52.73
2023-05-29T04:37:14.691Z,52.80
2023-05-29T04:38:17.075Z,52.59
2023-05-29T04:39:18.655Z,52.54
2023-05-29T04:40:21.505Z,52.83
2023-05-29T04:41:24.511Z,51.83
2023-05-29T04:42:26.481Z,51.71
2023-05-29T04:43:28.391Z,52.33
2023-05-29T04:44:34.072Z,52.18
2023-05-29T04:45:38.040Z,52.57
2023-05-29T04:46:39.693Z,52.31
2023-05-29T04:47:47.237Z,52.69
2023-05-29T04:48:48.928Z,52.48
2023-05-29T04:49:51.358Z,52.58
2023-05-29T04:50:53.119Z,52.73
2023-05-29T04:51:54.832Z,52.83
2023-05-29T04:52:56.459Z,52.63
2023-05-29T04:53:58.150Z,52.89
2023-05-29T04:54:59.721Z,53.12
2023-05-29T04:56:01.302Z,52.53
2023-05-29T04:57:02.972Z,52.26
2023-05-29T04:58:04.572Z,52.74
2023-05-29T04:59:06.139Z,52.45
2023-05-29T05:00:09.500Z,52.41
2023-05-29T05:01:15.244Z,52.44
2023-05-29T05:02:16.806Z,52.70
2023-05-29T05:03:18.483Z,52.69
2023-05-29T05:04:20.251Z,52.97
2023-05-29T05:05:22.159Z,53.16
2023-05-29T05:06:23.719Z,52.94
2023-05-29T05:07:25.512Z,52.90
2023-05-29T05:08:27.401Z,52.62
2023-05-29T05:09:28.961Z,52.15
2023-05-29T05:10:30.695Z,52.61
2023-05-29T05:11:32.339Z,52.34
2023-05-29T05:12:34.493Z,52.20
2023-05-29T05:13:36.604Z,52.04
2023-05-29T05:14:38.625Z,52.18
2023-05-29T05:15:40.298Z,52.53
2023-05-29T05:16:41.901Z,52.08
2023-05-29T05:17:43.665Z,51.76
2023-05-29T05:18:48.282Z,51.63
2023-05-29T05:19:50.554Z,51.32
2023-05-29T05:20:52.380Z,51.93
2023-05-29T05:21:54.129Z,51.59
2023-05-29T05:22:57.017Z,51.21
2023-05-29T05:23:59.153Z,50.26
2023-05-29T05:25:01.648Z,50.61
2023-05-29T05:26:03.795Z,50.05
2023-05-29T05:27:08.509Z,50.95
2023-05-29T05:28:10.845Z,50.22
2023-05-29T05:29:12.517Z,50.86
2023-05-29T05:30:14.394Z,50.66
2023-05-29T05:31:16.302Z,50.00
2023-05-29T05:32:17.918Z,50.02
2023-05-29T05:33:19.547Z,50.03
2023-05-29T05:34:21.499Z,50.34
2023-05-29T05:35:23.134Z,49.66
2023-05-29T05:36:24.745Z,50.16
2023-05-29T05:37:26.906Z,50.41
2023-05-29T05:38:28.832Z,49.77
2023-05-29T05:39:30.715Z,49.27
2023-05-29T05:40:32.358Z,49.45
2023-05-29T05:41:33.947Z,49.86
2023-05-29T05:42:35.550Z,49.24
2023-05-29T05:43:37.307Z,48.49
2023-05-29T05:44:38.881Z,48.71
2023-05-29T05:45:43.272Z,48.80
2023-05-29T05:46:45.001Z,48.62
2023-05-29T05:47:47.547Z,48.65
2023-05-29T05:48:49.289Z,48.59
2023-05-29T05:49:52.569Z,48.84
2023-05-29T05:50:54.299Z,48.95
2023-05-29T05:51:56.049Z,48.81
2023-05-29T05:52:58.026Z,48.66
2023-05-29T05:53:59.799Z,48.60
2023-05-29T05:55:01.380Z,48.69
2023-05-29T05:56:03.036Z,48.89
2023-05-29T05:57:04.814Z,49.23
2023-05-29T05:58:06.680Z,48.98
2023-05-29T05:59:08.333Z,48.64
2023-05-29T06:00:13.992Z,47.94
2023-05-29T06:01:16.150Z,47.56
2023-05-29T06:02:17.797Z,47.75
2023-05-29T06:03:19.721Z,47.24
2023-05-29T06:04:21.822Z,47.20
2023-05-29T06:05:23.384Z,47.42
2023-05-29T06:06:25.238Z,47.00
2023-05-29T06:07:27.057Z,47.20
2023-05-29T06:08:28.981Z,47.06
2023-05-29T06:09:30.510Z,47.52
2023-05-29T06:10:32.075Z,47.28
2023-05-29T06:11:33.668Z,47.19
2023-05-29T06:12:35.979Z,46.97
2023-05-29T06:13:37.953Z,46.76
2023-05-29T06:14:42.443Z,46.90
2023-05-29T06:15:44.748Z,46.01
2023-05-29T06:16:51.748Z,45.19
2023-05-29T06:17:54.123Z,44.33
2023-05-29T06:18:56.517Z,44.30
2023-05-29T06:19:58.072Z,44.52
2023-05-29T06:20:59.970Z,45.10
2023-05-29T06:22:02.064Z,45.31
2023-05-29T06:23:03.668Z,45.02
2023-05-29T06:24:05.376Z,44.42
2023-05-29T06:25:09.522Z,44.30
2023-05-29T06:26:13.491Z,43.95
2023-05-29T06:27:15.100Z,43.43
2023-05-29T06:28:16.831Z,43.49
2023-05-29T06:29:18.531Z,44.01
2023-05-29T06:30:20.120Z,43.91
2023-05-29T06:31:21.780Z,44.04
2023-05-29T06:32:23.385Z,43.88
2023-05-29T06:33:25.371Z,43.58
2023-05-29T06:34:27.236Z,43.81
2023-05-29T06:35:28.790Z,43.72
2023-05-29T06:36:30.334Z,43.54
2023-05-29T06:37:31.940Z,43.00
2023-05-29T06:38:33.497Z,43.11
2023-05-29T06:39:35.064Z,42.70
2023-05-29T06:40:36.630Z,42.42
2023-05-29T06:41:38.219Z,42.22
2023-05-29T06:42:39.843Z,42.60
2023-05-29T06:43:42.874Z,42.54
2023-05-29T06:44:45.996Z,42.19
2023-05-29T06:45:47.558Z,42.16
2023-05-29T06:46:49.155Z,42.20
2023-05-29T06:47:50.916Z,42.46
2023-05-29T06:48:52.503Z,42.65
2023-05-29T06:49:54.119Z,42.81
2023-05-29T06:50:55.941Z,42.48
2023-05-29T06:51:57.654Z,42.19
2023-05-29T06:52:59.263Z,41.62
2023-05-29T06:54:01.101Z,41.62
2023-05-29T06:55:03.177Z,41.76
2023-05-29T06:56:05.590Z,41.35
2023-05-29T06:57:11.120Z,41.41
2023-05-29T06:58:13.364Z,41.26
2023-05-29T06:59:15.325Z,40.72
2023-05-29T07:00:18.583Z,41.03
2023-05-29T07:01:20.430Z,40.82
2023-05-29T07:02:22.082Z,40.89
2023-05-29T07:03:23.865Z,41.26
2023-05-29T07:04:25.753Z,41.30
2023-05-29T07:05:28.052Z,41.45
2023-05-29T07:06:29.753Z,41.29
2023-05-29T07:07:31.395Z,41.35
2023-05-29T07:08:32.972Z,40.23
2023-05-29T07:09:34.702Z,38.98
2023-05-29T07:10:40.318Z,38.64
2023-05-29T07:11:41.893Z,38.33
2023-05-29T07:12:46.404Z,37.96
2023-05-29T07:13:47.968Z,38.22
2023-05-29T07:14:51.709Z,38.25
2023-05-29T07:15:53.301Z,37.53
2023-05-29T07:16:54.997Z,38.13
2023-05-29T07:17:56.708Z,38.95
2023-05-29T07:18:58.316Z,37.93
2023-05-29T07:20:00.069Z,37.84
2023-05-29T07:21:02.092Z,37.13
2023-05-29T07:22:03.974Z,37.63
2023-05-29T07:23:05.577Z,37.90
2023-05-29T07:24:07.271Z,37.23
2023-05-29T07:25:09.213Z,36.82
2023-05-29T07:26:11.093Z,37.42
2023-05-29T07:27:12.667Z,37.74
2023-05-29T07:28:22.148Z,37.86
2023-05-29T07:29:24.834Z,37.55
2023-05-29T07:30:26.501Z,37.33
2023-05-29T07:31:28.151Z,37.21
2023-05-29T07:32:29.835Z,37.70
2023-05-29T07:33:31.546Z,38.04
2023-05-29T07:34:33.497Z,37.90
2023-05-29T07:35:35.079Z,38.25
2023-05-29T07:36:37.133Z,38.56
2023-05-29T07:37:38.769Z,38.84
2023-05-29T07:38:40.464Z,38.63
2023-05-29T07:39:42.599Z,38.09
2023-05-29T07:40:44.212Z,38.00
2023-05-29T07:41:45.836Z,38.32
2023-05-29T07:42:47.506Z,37.99
2023-05-29T07:43:53.041Z,37.32
2023-05-29T07:44:54.965Z,37.76
2023-05-29T07:45:56.573Z,37.88
2023-05-29T07:46:58.258Z,37.20
2023-05-29T07:47:59.867Z,35.57
2023-05-29T07:49:01.655Z,35.37
2023-05-29T07:50:03.318Z,35.69
2023-05-29T07:51:05.788Z,35.94
2023-05-29T07:52:07.444Z,36.04
2023-05-29T07:53:08.971Z,36.37
2023-05-29T07:54:10.769Z,36.70
2023-05-29T07:55:12.395Z,35.69
2023-05-29T07:56:14.645Z,35.84
2023-05-29T07:57:16.248Z,36.15
2023-05-29T07:58:18.403Z,36.71
2023-05-29T07:59:19.968Z,36.85
2023-05-29T08:00:21.707Z,36.75
2023-05-29T08:01:23.315Z,36.79
2023-05-29T08:02:25.001Z,36.78
2023-05-29T08:03:27.156Z,36.66
2023-05-29T08:04:28.929Z,35.37
2023-05-29T08:05:30.730Z,34.23
2023-05-29T08:06:35.488Z,32.46
2023-05-29T08:07:37.814Z,33.14
2023-05-29T08:08:39.395Z,32.55
2023-05-29T08:09:41.145Z,31.95
2023-05-29T08:10:42.752Z,32.44
2023-05-29T08:11:46.394Z,32.98
2023-05-29T08:12:48.094Z,32.86
2023-05-29T08:13:49.678Z,31.05
2023-05-29T08:14:51.939Z,31.06
2023-05-29T08:15:53.740Z,30.94
2023-05-29T08:16:55.635Z,30.46
2023-05-29T08:17:57.316Z,30.56
2023-05-29T08:18:58.949Z,29.93
2023-05-29T08:20:01.263Z,29.84
2023-05-29T08:21:03.667Z,29.70
2023-05-29T08:22:05.500Z,30.60
2023-05-29T08:23:07.127Z,30.96
2023-05-29T08:24:09.717Z,31.51
2023-05-29T08:25:11.343Z,30.67
2023-05-29T08:26:14.268Z,29.72
2023-05-29T08:27:18.359Z,29.51
2023-05-29T08:28:19.969Z,29.91
2023-05-29T08:29:21.631Z,29.91
2023-05-29T08:30:23.254Z,29.95
2023-05-29T08:31:26.669Z,30.35
2023-05-29T08:32:28.496Z,30.20
2023-05-29T08:33:31.649Z,29.73
2023-05-29T08:34:33.373Z,29.90
2023-05-29T08:35:35.167Z,30.34
2023-05-29T08:36:36.773Z,30.54
2023-05-29T08:37:38.371Z,30.13
2023-05-29T08:38:40.010Z,29.84
2023-05-29T08:39:42.157Z,29.19
2023-05-29T08:40:43.800Z,28.67
2023-05-29T08:41:52.331Z,28.45
2023-05-29T08:43:16.755Z,28.59
2023-05-29T08:44:18.942Z,28.14
2023-05-29T08:45:20.725Z,28.65
2023-05-29T08:46:22.382Z,27.53
2023-05-29T08:47:24.239Z,27.98
2023-05-29T08:48:26.460Z,28.54
2023-05-29T08:49:30.808Z,27.60
2023-05-29T08:50:32.401Z,27.87
2023-05-29T08:51:35.590Z,28.18
2023-05-29T08:52:37.355Z,27.75
2023-05-29T08:53:40.009Z,27.45
2023-05-29T08:54:47.320Z,27.47
2023-05-29T08:55:49.494Z,27.71
2023-05-29T08:56:51.100Z,28.37
2023-05-29T08:57:52.694Z,27.10
2023-05-29T08:58:54.385Z,27.69
2023-05-29T08:59:56.018Z,28.46
2023-05-29T09:00:57.868Z,28.51
2023-05-29T09:01:59.743Z,27.30
2023-05-29T09:03:04.431Z,27.30
2023-05-29T09:04:06.305Z,27.94
2023-05-29T09:05:08.295Z,28.40
2023-05-29T09:06:10.166Z,28.00
2023-05-29T09:07:13.849Z,28.94
2023-05-29T09:08:16.263Z,29.71
2023-05-29T09:09:21.654Z,29.60
2023-05-29T09:10:29.113Z,29.44
2023-05-29T09:11:30.702Z,30.04
2023-05-29T09:12:32.570Z,29.59
2023-05-29T09:13:34.117Z,28.78
2023-05-29T09:14:40.654Z,29.39
2023-05-29T09:15:44.727Z,30.41
2023-05-29T09:16:46.846Z,31.12
2023-05-29T09:17:56.075Z,30.01
2023-05-29T09:19:06.612Z,30.44
2023-05-29T09:20:16.715Z,31.08
2023-05-29T09:21:28.487Z,30.91
2023-05-29T09:22:30.166Z,30.74
2023-05-29T09:23:31.809Z,30.74
2023-05-29T09:24:34.059Z,30.15
2023-05-29T09:25:37.046Z,29.56
2023-05-29T09:26:38.639Z,29.84
2023-05-29T09:27:40.455Z,31.28
2023-05-29T09:28:42.330Z,29.88
2023-05-29T09:29:45.011Z,31.20
2023-05-29T09:30:48.133Z,32.48
2023-05-29T09:31:49.850Z,31.86
2023-05-29T09:32:54.588Z,31.02
2023-05-29T09:33:56.423Z,33.04
2023-05-29T09:34:58.739Z,31.66
2023-05-29T09:36:00.766Z,31.47
2023-05-29T09:37:09.755Z,32.39
2023-05-29T09:38:20.485Z,32.05
2023-05-29T09:39:30.611Z,32.85
2023-05-29T09:40:36.671Z,30.61
2023-05-29T09:41:47.525Z,30.97
2023-05-29T09:42:52.054Z,31.64
2023-05-29T09:43:55.916Z,31.35
2023-05-29T09:45:00.820Z,32.01
2023-05-29T09:46:03.348Z,33.09
2023-05-29T09:47:05.778Z,31.55
2023-05-29T09:48:08.441Z,31.37
2023-05-29T09:49:19.205Z,32.62
2023-05-29T09:50:23.952Z,31.74
2023-05-29T09:51:27.102Z,31.24
2023-05-29T09:52:31.294Z,31.13
2023-05-29T09:53:33.078Z,31.96
2023-05-29T09:54:39.282Z,32.63
2023-05-29T09:55:41.159Z,30.77
2023-05-29T09:56:43.822Z,29.84
2023-05-29T09:57:47.541Z,30.48
2023-05-29T09:58:49.755Z,30.72
2023-05-29T09:59:54.289Z,31.81
2023-05-29T10:00:59.621Z,31.70
2023-05-29T10:02:04.978Z,28.94
2023-05-29T10:03:07.000Z,29.75
2023-05-29T10:04:11.586Z,29.33
2023-05-29T10:05:16.651Z,28.84
2023-05-29T10:06:19.454Z,30.06
2023-05-29T10:07:23.310Z,29.36
2023-05-29T10:08:25.278Z,31.05
2023-05-29T10:09:26.928Z,31.98
2023-05-29T10:10:28.491Z,30.58
2023-05-29T10:11:30.306Z,30.74
2023-05-29T10:12:37.950Z,28.85
2023-05-29T10:13:40.071Z,29.03
2023-05-29T10:14:44.192Z,28.35
2023-05-29T10:15:46.648Z,29.01
2023-05-29T10:16:48.507Z,27.71
2023-05-29T10:18:05.514Z,28.91
2023-05-29T10:19:08.604Z,29.02
2023-05-29T10:20:10.574Z,29.34
2023-05-29T10:21:13.048Z,30.39
2023-05-29T10:22:14.667Z,29.48
2023-05-29T10:23:16.227Z,29.61
2023-05-29T10:24:18.136Z,29.60
2023-05-29T10:25:20.887Z,29.36
2023-05-29T10:26:23.589Z,29.72
2023-05-29T10:27:25.184Z,27.86
2023-05-29T10:28:26.739Z,30.71
2023-05-29T10:29:29.740Z,29.15
2023-05-29T10:30:46.918Z,28.78
2023-05-29T10:32:00.077Z,28.56
2023-05-29T10:33:07.714Z,28.24
2023-05-29T10:34:33.251Z,27.41
2023-05-29T10:35:41.084Z,28.51
2023-05-29T10:36:48.254Z,28.62
2023-05-29T10:38:04.082Z,29.37
2023-05-29T10:39:05.981Z,29.53
2023-05-29T10:40:14.273Z,30.88
2023-05-29T10:41:27.677Z,30.59
2023-05-29T10:42:50.539Z,29.77
2023-05-29T10:44:00.570Z,28.50
2023-05-29T10:45:02.128Z,27.89
2023-05-29T10:46:03.981Z,27.80
2023-05-29T10:47:06.632Z,29.71
2023-05-29T10:48:08.183Z,28.45
2023-05-29T10:49:20.132Z,28.36
2023-05-29T10:50:46.756Z,27.64
2023-05-29T10:51:49.422Z,27.10
2023-05-29T10:52:51.222Z,27.38
2023-05-29T10:53:53.107Z,27.90
2023-05-29T10:54:55.965Z,28.42
2023-05-29T10:55:58.128Z,28.60
2023-05-29T10:57:02.247Z,28.17
2023-05-29T10:58:07.873Z,29.27
2023-05-29T10:59:09.802Z,27.26
2023-05-29T11:00:16.380Z,27.07
2023-05-29T11:01:18.788Z,26.64
2023-05-29T11:02:21.596Z,27.33
2023-05-29T11:03:25.084Z,26.84
2023-05-29T11:04:27.617Z,27.37
2023-05-29T11:05:29.319Z,27.38
2023-05-29T11:06:30.886Z,26.71
2023-05-29T11:07:36.402Z,26.59
2023-05-29T11:08:48.399Z,27.00
2023-05-29T11:09:51.322Z,27.85
2023-05-29T11:10:55.936Z,28.24
2023-05-29T11:12:13.858Z,27.92
2023-05-29T11:13:29.617Z,29.66
2023-05-29T11:14:31.287Z,29.09
2023-05-29T11:15:32.895Z,28.45
2023-05-29T11:16:36.968Z,28.50
2023-05-29T11:17:38.529Z,27.44
2023-05-29T11:18:45.532Z,28.52
2023-05-29T11:19:47.220Z,27.21
2023-05-29T11:20:53.981Z,27.38
2023-05-29T11:22:10.390Z,27.62
2023-05-29T11:23:18.393Z,28.32
2023-05-29T11:24:27.219Z,28.32
2023-05-29T11:25:29.180Z,28.26
2023-05-29T11:26:31.225Z,30.46
2023-05-29T11:27:33.171Z,30.59
2023-05-29T11:28:34.905Z,29.76
2023-05-29T11:29:36.679Z,27.79
2023-05-29T11:30:45.379Z,27.55
2023-05-29T11:31:47.045Z,28.34
2023-05-29T11:32:49.166Z,28.48
2023-05-29T11:33:51.782Z,27.81
2023-05-29T11:34:53.462Z,27.97
2023-05-29T11:35:59.138Z,29.26
2023-05-29T11:37:01.636Z,29.23
2023-05-29T11:38:04.403Z,28.55
2023-05-29T11:39:06.512Z,28.63
2023-05-29T11:40:12.160Z,29.52
2023-05-29T11:41:14.990Z,28.48
2023-05-29T11:42:17.460Z,28.63
2023-05-29T11:43:19.434Z,28.24
2023-05-29T11:44:21.847Z,27.45
2023-05-29T11:45:24.499Z,28.25
2023-05-29T11:46:27.574Z,27.34
2023-05-29T11:47:29.221Z,27.40
2023-05-29T11:48:30.872Z,27.24
2023-05-29T11:49:34.204Z,27.41
2023-05-29T11:50:38.344Z,28.47
2023-05-29T11:51:42.875Z,29.30
2023-05-29T11:52:47.584Z,27.92
2023-05-29T11:53:49.432Z,27.47
2023-05-29T11:54:51.453Z,28.18
2023-05-29T11:55:53.241Z,28.40
2023-05-29T11:56:54.914Z,28.84
2023-05-29T11:58:03.484Z,28.11
2023-05-29T11:59:08.857Z,27.95
2023-05-29T12:00:14.541Z,27.96
2023-05-29T12:01:18.160Z,28.60
2023-05-29T12:02:20.457Z,27.52
2023-05-29T12:03:22.217Z,27.78
2023-05-29T12:04:23.910Z,27.64
2023-05-29T12:05:25.745Z,28.55
2023-05-29T12:06:38.673Z,28.34
2023-05-29T12:07:40.449Z,28.48
2023-05-29T12:08:42.352Z,28.23
2023-05-29T12:09:43.957Z,28.49
2023-05-29T12:10:52.927Z,27.75
2023-05-29T12:12:04.419Z,26.80
2023-05-29T12:13:06.065Z,27.86
2023-05-29T12:14:07.635Z,27.37
2023-05-29T12:15:09.759Z,26.55
2023-05-29T12:16:11.639Z,26.21
2023-05-29T12:17:13.288Z,26.68
2023-05-29T12:18:15.045Z,27.01
2023-05-29T12:19:16.634Z,26.78
2023-05-29T12:20:18.672Z,26.79
2023-05-29T12:21:22.765Z,26.18
2023-05-29T12:22:35.101Z,26.27
2023-05-29T12:23:38.398Z,26.88
2023-05-29T12:24:43.304Z,27.58
2023-05-29T12:25:46.020Z,27.62
2023-05-29T12:26:50.409Z,27.17
2023-05-29T12:27:52.009Z,27.17
2023-05-29T12:28:53.727Z,26.32
2023-05-29T12:30:02.465Z,26.72
2023-05-29T12:31:04.415Z,26.89
2023-05-29T12:32:10.969Z,26.30
2023-05-29T12:33:27.909Z,26.34
2023-05-29T12:34:37.267Z,26.61
2023-05-29T12:35:38.908Z,26.22
2023-05-29T12:36:44.200Z,26.83
2023-05-29T12:37:50.615Z,26.72
2023-05-29T12:38:52.654Z,27.06
2023-05-29T12:40:19.712Z,27.19
2023-05-29T12:41:28.066Z,27.81
2023-05-29T12:42:30.000Z,27.55
2023-05-29T12:43:31.694Z,26.63
2023-05-29T12:44:33.496Z,26.55
2023-05-29T12:45:35.278Z,25.79
2023-05-29T12:46:41.873Z,26.13
2023-05-29T12:48:07.918Z,27.32
2023-05-29T12:49:22.202Z,27.11
2023-05-29T12:50:28.137Z,26.42
2023-05-29T12:51:29.757Z,25.76
2023-05-29T12:52:31.334Z,26.66
2023-05-29T12:53:32.945Z,26.60
2023-05-29T12:54:34.718Z,27.33
2023-05-29T12:55:40.490Z,26.10
2023-05-29T12:56:42.284Z,25.94
2023-05-29T12:57:45.782Z,26.50
2023-05-29T12:58:47.442Z,26.43
2023-05-29T12:59:49.044Z,26.39
2023-05-29T13:00:57.134Z,24.83
2023-05-29T13:01:58.719Z,25.79
2023-05-29T13:03:00.470Z,26.01
2023-05-29T13:04:02.216Z,26.29
2023-05-29T13:05:03.989Z,26.78
2023-05-29T13:06:05.922Z,26.29
2023-05-29T13:07:07.560Z,26.75
2023-05-29T13:08:09.314Z,25.90
2023-05-29T13:09:11.938Z,26.12
2023-05-29T13:10:13.519Z,27.06
2023-05-29T13:11:18.875Z,24.95
2023-05-29T13:12:20.492Z,25.79
2023-05-29T13:13:23.270Z,26.62
2023-05-29T13:14:24.670Z,25.07
2023-05-29T13:15:26.831Z,24.84
2023-05-29T13:16:28.425Z,24.74
2023-05-29T13:17:30.120Z,25.73
2023-05-29T13:18:32.080Z,25.97
2023-05-29T13:19:33.670Z,26.24
2023-05-29T13:20:35.828Z,25.41
2023-05-29T13:21:37.539Z,26.90
2023-05-29T13:22:39.811Z,25.80
2023-05-29T13:23:41.352Z,25.18
2023-05-29T13:24:43.115Z,25.21
2023-05-29T13:25:44.737Z,25.69
2023-05-29T13:26:46.321Z,26.04
2023-05-29T13:27:48.421Z,26.30
2023-05-29T13:28:50.089Z,25.74
2023-05-29T13:29:53.504Z,25.46
2023-05-29T13:30:56.892Z,25.71
2023-05-29T13:31:58.518Z,25.22
2023-05-29T13:33:00.110Z,25.52
2023-05-29T13:34:01.691Z,25.64